Alexander Maersk — OZRC2 — position and weather

sailwx.info

Track history (hours):
 
Tides and Currents Weather Stations Pressure Air Temp Water Temp Dewpoint Dewpoint Depression Visibility Wind Speed Wind Dir Waves Ship Positions

Alexander Maersk

Last reported at 2014-Sep-18 17:31 UTC. Time now 2014-Sep-18 17:41 UTC.
Position N 32°22' E 015°13'.

Length 155 m; draft 8.5 m.

Type: Ship. MMSI: 219470000.

Date/timePositionNaut miles runAvg speedWind from/ knotsBaromVisibWave heightAir tempDewpointWater temp
2014-Sep-18 17:31N 32°22' E 015°13'0 0.0
2014-Sep-18 15:25N 32°22' E 015°13'0 0.0
2014-Sep-18 14:04N 32°22' E 015°13'0 0.0
2014-Sep-18 13:31N 32°22' E 015°13'0 0.0
2014-Sep-18 02:25N 32°22' E 015°13'0 0.0
2014-Sep-17 19:25N 32°22' E 015°13'0 0.0
2014-Sep-17 16:10N 32°22' E 015°13'0 0.4
2014-Sep-17 15:32N 32°22' E 015°13'170 8.8
2014-Sep-16 20:22N 35°10' E 014°43'37 8.9
2014-Sep-16 16:14N 35°46' E 014°35'4 0.2
2014-Sep-15 15:33N 35°49' E 014°32'0 0.0
2014-Sep-15 14:33N 35°49' E 014°32'0 0.0
2014-Sep-15 13:33N 35°49' E 014°32'0 0.1
2014-Sep-15 12:33N 35°49' E 014°32'5 5.2
2014-Sep-15 11:33N 35°46' E 014°37'1111.2
2014-Sep-15 10:33N 35°40' E 014°48'1212.1
2014-Sep-15 09:33N 35°33' E 015°01'1212.2
2014-Sep-15 08:33N 35°25' E 015°12'5 4.7
2014-Sep-15 07:28N 35°22' E 015°17'1 1.0
2014-Sep-15 06:33N 35°22' E 015°16'1 1.0
2014-Sep-15 05:31N 35°23' E 015°16'2 1.1
2014-Sep-15 03:13N 35°25' E 015°13'1 1.0
2014-Sep-15 02:33N 35°25' E 015°13'1 1.1
2014-Sep-15 01:20N 35°26' E 015°11'1 1.2
2014-Sep-15 00:18N 35°26' E 015°10'6 1.3
2014-Sep-14 19:15N 35°27' E 015°02'3 1.7
2014-Sep-14 17:33N 35°28' E 014°59'2 1.5
2014-Sep-14 16:33N 35°28' E 014°57'1 1.3
2014-Sep-14 15:33N 35°29' E 014°55'1 1.1
2014-Sep-14 14:33N 35°29' E 014°54'3 2.7
2014-Sep-14 13:33N 35°27' E 014°56'10 8.9
2014-Sep-14 12:29N 35°22' E 015°05'9 9.3
2014-Sep-14 11:33N 35°18' E 015°15'9 8.9
2014-Sep-14 10:33N 35°15' E 015°25'5 2.4
2014-Sep-14 08:16N 35°14' E 015°32'1 2.0
2014-Sep-14 07:33N 35°15' E 015°30'2 1.9
2014-Sep-14 06:29N 35°16' E 015°29'2 2.0
2014-Sep-14 05:25N 35°18' E 015°27'4 2.0
2014-Sep-14 03:25N 35°21' E 015°24'2 1.9
2014-Sep-14 02:31N 35°22' E 015°22'2 1.7
2014-Sep-14 01:33N 35°23' E 015°21'4 1.1
2014-Sep-13 21:33N 35°25' E 015°16'1 0.9
2014-Sep-13 20:25N 35°26' E 015°15'5 0.8
2014-Sep-13 13:19N 35°23' E 015°10'1 0.7
2014-Sep-13 12:33N 35°23' E 015°09'1 0.5
2014-Sep-13 10:33N 35°23' E 015°08'1 0.5
2014-Sep-13 09:20N 35°23' E 015°07'0 0.4
2014-Sep-13 08:33N 35°23' E 015°07'1 0.6
2014-Sep-13 06:16N 35°23' E 015°05'1 1.1
2014-Sep-13 05:19N 35°23' E 015°04'1 1.1
2014-Sep-13 04:33N 35°23' E 015°03'2 0.9
2014-Sep-13 02:28N 35°23' E 015°01'1 0.7
2014-Sep-13 01:33N 35°22' E 014°60'1 0.7
2014-Sep-13 00:33N 35°22' E 014°59'1 0.5
2014-Sep-12 22:12N 35°21' E 014°58'1 0.6
2014-Sep-12 21:22N 35°21' E 014°58'1 0.4
2014-Sep-12 18:28N 35°20' E 014°56'1 0.4
2014-Sep-12 16:31N 35°20' E 014°56'0 0.3
2014-Sep-12 15:19N 35°20' E 014°55'59 6.0
2014-Sep-12 05:29N 34°21' E 014°54'3210.0
2014-Sep-12 02:15N 33°49' E 015°01'88 2.6
2014-Sep-10 16:31N 32°22' E 015°13'  
Track history (hours):
 
Tides and Currents Weather Stations Pressure Air Temp Water Temp Dewpoint Dewpoint Depression Visibility Wind Speed Wind Dir Waves Ship Positions

Alexander Maersk

Last reported at 2014-Sep-18 17:31 UTC. Time now 2014-Sep-18 17:41 UTC.
Position N 32°22' E 015°13'.

Length 155 m; draft 8.5 m.

Type: Ship. MMSI: 219470000.

Date/timePositionNaut miles runAvg speedWind from/ knotsBaromVisibWave heightAir tempDewpointWater temp
2014-Sep-18 17:31N 32°22' E 015°13'0 0.0
2014-Sep-18 15:25N 32°22' E 015°13'0 0.0
2014-Sep-18 14:04N 32°22' E 015°13'0 0.0
2014-Sep-18 13:31N 32°22' E 015°13'0 0.0
2014-Sep-18 02:25N 32°22' E 015°13'0 0.0
2014-Sep-17 19:25N 32°22' E 015°13'0 0.0
2014-Sep-17 16:10N 32°22' E 015°13'0 0.4
2014-Sep-17 15:32N 32°22' E 015°13'170 8.8
2014-Sep-16 20:22N 35°10' E 014°43'37 8.9
2014-Sep-16 16:14N 35°46' E 014°35'4 0.2
2014-Sep-15 15:33N 35°49' E 014°32'0 0.0
2014-Sep-15 14:33N 35°49' E 014°32'0 0.0
2014-Sep-15 13:33N 35°49' E 014°32'0 0.1
2014-Sep-15 12:33N 35°49' E 014°32'5 5.2
2014-Sep-15 11:33N 35°46' E 014°37'1111.2
2014-Sep-15 10:33N 35°40' E 014°48'1212.1
2014-Sep-15 09:33N 35°33' E 015°01'1212.2
2014-Sep-15 08:33N 35°25' E 015°12'5 4.7
2014-Sep-15 07:28N 35°22' E 015°17'1 1.0
2014-Sep-15 06:33N 35°22' E 015°16'1 1.0
2014-Sep-15 05:31N 35°23' E 015°16'2 1.1
2014-Sep-15 03:13N 35°25' E 015°13'1 1.0
2014-Sep-15 02:33N 35°25' E 015°13'1 1.1
2014-Sep-15 01:20N 35°26' E 015°11'1 1.2
2014-Sep-15 00:18N 35°26' E 015°10'6 1.3
2014-Sep-14 19:15N 35°27' E 015°02'3 1.7
2014-Sep-14 17:33N 35°28' E 014°59'2 1.5
2014-Sep-14 16:33N 35°28' E 014°57'1 1.3
2014-Sep-14 15:33N 35°29' E 014°55'1 1.1
2014-Sep-14 14:33N 35°29' E 014°54'3 2.7
2014-Sep-14 13:33N 35°27' E 014°56'10 8.9
2014-Sep-14 12:29N 35°22' E 015°05'9 9.3
2014-Sep-14 11:33N 35°18' E 015°15'9 8.9
2014-Sep-14 10:33N 35°15' E 015°25'5 2.4
2014-Sep-14 08:16N 35°14' E 015°32'1 2.0
2014-Sep-14 07:33N 35°15' E 015°30'2 1.9
2014-Sep-14 06:29N 35°16' E 015°29'2 2.0
2014-Sep-14 05:25N 35°18' E 015°27'4 2.0
2014-Sep-14 03:25N 35°21' E 015°24'2 1.9
2014-Sep-14 02:31N 35°22' E 015°22'2 1.7
2014-Sep-14 01:33N 35°23' E 015°21'4 1.1
2014-Sep-13 21:33N 35°25' E 015°16'1 0.9
2014-Sep-13 20:25N 35°26' E 015°15'5 0.8
2014-Sep-13 13:19N 35°23' E 015°10'1 0.7
2014-Sep-13 12:33N 35°23' E 015°09'1 0.5
2014-Sep-13 10:33N 35°23' E 015°08'1 0.5
2014-Sep-13 09:20N 35°23' E 015°07'0 0.4
2014-Sep-13 08:33N 35°23' E 015°07'1 0.6
2014-Sep-13 06:16N 35°23' E 015°05'1 1.1
2014-Sep-13 05:19N 35°23' E 015°04'1 1.1
2014-Sep-13 04:33N 35°23' E 015°03'2 0.9
2014-Sep-13 02:28N 35°23' E 015°01'1 0.7
2014-Sep-13 01:33N 35°22' E 014°60'1 0.7
2014-Sep-13 00:33N 35°22' E 014°59'1 0.5
2014-Sep-12 22:12N 35°21' E 014°58'1 0.6
2014-Sep-12 21:22N 35°21' E 014°58'1 0.4
2014-Sep-12 18:28N 35°20' E 014°56'1 0.4
2014-Sep-12 16:31N 35°20' E 014°56'0 0.3
2014-Sep-12 15:19N 35°20' E 014°55'59 6.0
2014-Sep-12 05:29N 34°21' E 014°54'3210.0
2014-Sep-12 02:15N 33°49' E 015°01'88 2.6
2014-Sep-10 16:31N 32°22' E 015°13'  

Dump ship's entire track history